createdAt,value
2023-02-17T00:01:45.766Z,100452.80
2023-02-17T00:04:14.500Z,100447.98
2023-02-17T00:06:43.741Z,100451.01
2023-02-17T00:09:13.161Z,100450.38
2023-02-17T00:11:42.400Z,100453.15
2023-02-17T00:14:14.599Z,100449.63
2023-02-17T00:16:44.081Z,100447.69
2023-02-17T00:19:27.137Z,100441.98
2023-02-17T00:21:58.976Z,100437.48
2023-02-17T00:24:31.243Z,100435.10
2023-02-17T00:27:00.918Z,100432.65
2023-02-17T00:29:29.999Z,100426.02
2023-02-17T00:31:59.415Z,100430.30
2023-02-17T00:34:28.799Z,100428.08
2023-02-17T00:36:58.149Z,100421.19
2023-02-17T00:39:28.874Z,100417.15
2023-02-17T00:41:58.482Z,100411.05
2023-02-17T00:44:27.651Z,100408.08
2023-02-17T00:46:56.993Z,100410.80
2023-02-17T00:49:27.869Z,100407.81
2023-02-17T00:52:04.688Z,100409.77
2023-02-17T00:54:36.278Z,100414.25
2023-02-17T00:57:04.600Z,100406.20
2023-02-17T04:02:07.446Z,100245.92
2023-02-17T04:04:36.734Z,100245.52
2023-02-17T04:07:06.405Z,100244.01
2023-02-17T04:09:35.565Z,100242.43
2023-02-17T04:12:05.049Z,100239.77
2023-02-17T04:14:34.165Z,100237.16
2023-02-17T04:17:03.312Z,100228.33
2023-02-17T04:19:32.519Z,100218.77
2023-02-17T04:22:02.127Z,100215.20
2023-02-17T04:24:31.458Z,100211.00
2023-02-17T04:27:00.837Z,100214.67
2023-02-17T04:29:30.359Z,100211.52
2023-02-17T04:31:59.791Z,100210.10
2023-02-17T04:34:29.110Z,100203.32
2023-02-17T04:36:58.375Z,100191.66
2023-02-17T04:39:27.195Z,100187.66
2023-02-17T04:41:56.389Z,100182.92
2023-02-17T04:44:25.892Z,100180.95
2023-02-17T04:46:55.090Z,100179.90
2023-02-17T04:49:24.375Z,100180.64
2023-02-17T04:51:53.696Z,100178.16
2023-02-17T04:54:23.591Z,100177.65
2023-02-17T04:56:52.752Z,100179.17
2023-02-17T04:59:24.104Z,100174.55
2023-02-17T05:01:55.090Z,100168.63
2023-02-17T05:04:24.087Z,100176.35
2023-02-17T05:06:52.779Z,100178.25
2023-02-17T05:09:22.317Z,100178.37
2023-02-17T05:11:51.503Z,100178.51
2023-02-17T05:14:20.500Z,100179.77
2023-02-17T05:16:50.016Z,100179.64
2023-02-17T05:19:18.962Z,100175.66
2023-02-17T05:21:48.278Z,100177.21
2023-02-17T05:24:18.347Z,100170.64
2023-02-17T05:26:47.508Z,100174.39
2023-02-17T05:29:16.940Z,100173.65
2023-02-17T05:31:46.283Z,100172.63
2023-02-17T05:34:15.953Z,100174.02
2023-02-17T05:36:45.181Z,100178.44
2023-02-17T05:39:14.430Z,100172.61
2023-02-17T05:41:43.542Z,100173.94
2023-02-17T05:44:12.887Z,100171.91
2023-02-17T05:46:42.287Z,100168.98
2023-02-17T05:49:11.720Z,100165.48
2023-02-17T05:51:40.985Z,100159.31
2023-02-17T05:54:09.805Z,100161.07
2023-02-17T05:56:38.283Z,100156.49
2023-02-17T05:59:06.701Z,100157.78
2023-02-17T06:01:37.340Z,100155.50
2023-02-17T06:04:06.434Z,100154.03
2023-02-17T06:06:35.940Z,100155.50
2023-02-17T06:09:05.318Z,100155.12
2023-02-17T06:11:33.963Z,100152.15
2023-02-17T06:14:03.827Z,100152.15
2023-02-17T06:16:33.232Z,100147.12
2023-02-17T06:19:02.974Z,100146.27
2023-02-17T06:21:33.283Z,100144.52
2023-02-17T06:24:02.400Z,100145.65
2023-02-17T06:26:31.577Z,100141.38
2023-02-17T06:29:01.414Z,100136.02
2023-02-17T06:31:30.715Z,100132.86
2023-02-17T06:33:59.294Z,100135.00
2023-02-17T06:36:28.585Z,100133.65
2023-02-17T06:38:57.636Z,100132.11
2023-02-17T06:41:27.055Z,100136.87
2023-02-17T06:43:56.267Z,100134.28
2023-02-17T06:46:25.090Z,100138.02
2023-02-17T06:48:53.661Z,100142.49
2023-02-17T06:51:23.140Z,100140.61
2023-02-17T06:53:51.742Z,100138.04
2023-02-17T06:56:21.350Z,100138.41
2023-02-17T06:58:50.906Z,100137.09
2023-02-17T07:01:24.229Z,100139.30
2023-02-17T07:03:54.833Z,100137.98
2023-02-17T07:06:26.058Z,100136.70
2023-02-17T07:08:55.486Z,100137.73
2023-02-17T07:11:24.670Z,100135.37
2023-02-17T07:13:53.906Z,100137.48
2023-02-17T07:16:23.209Z,100133.27
2023-02-17T07:18:53.092Z,100134.33
2023-02-17T07:21:22.695Z,100135.09
2023-02-17T07:23:52.047Z,100133.59
2023-02-17T07:26:21.205Z,100132.92
2023-02-17T07:28:49.965Z,100134.96
2023-02-17T07:31:18.722Z,100130.90
2023-02-17T07:33:48.978Z,100134.40
2023-02-17T07:36:18.204Z,100132.33
2023-02-17T07:38:47.632Z,100131.02
2023-02-17T07:41:19.003Z,100130.91
2023-02-17T07:43:49.321Z,100129.88
2023-02-17T07:46:19.036Z,100127.90
2023-02-17T07:48:48.364Z,100131.21
2023-02-17T07:51:22.412Z,100127.13
2023-02-17T07:53:53.454Z,100125.88
2023-02-17T07:56:24.115Z,100126.89
2023-02-17T07:58:53.241Z,100121.79
2023-02-17T08:01:24.689Z,100124.84
2023-02-17T08:03:54.374Z,100127.72
2023-02-17T08:06:25.714Z,100120.84
2023-02-17T08:09:14.145Z,100116.65
2023-02-17T08:12:03.682Z,100116.19
2023-02-17T08:14:33.689Z,100115.55
2023-02-17T08:17:02.857Z,100116.48
2023-02-17T08:19:46.721Z,100116.70
2023-02-17T08:22:17.902Z,100109.79
2023-02-17T08:24:46.921Z,100109.58
2023-02-17T08:27:17.128Z,100107.41
2023-02-17T08:29:46.081Z,100104.05
2023-02-17T08:32:17.416Z,100096.49
2023-02-17T08:34:46.309Z,100084.99
2023-02-17T08:37:15.499Z,100079.07
2023-02-17T08:39:43.776Z,100073.45
2023-02-17T08:42:12.836Z,100064.86
2023-02-17T08:44:41.590Z,100063.08
2023-02-17T08:47:10.817Z,100063.55
2023-02-17T08:49:40.767Z,100061.72
2023-02-17T08:52:10.184Z,100060.84
2023-02-17T08:54:39.713Z,100060.02
2023-02-17T08:57:08.896Z,100055.49
2023-02-17T08:59:37.209Z,100052.40
2023-02-17T09:02:07.271Z,100045.66
2023-02-17T09:04:36.820Z,100048.21
2023-02-17T09:07:09.723Z,100044.02
2023-02-17T09:09:39.578Z,100044.09
2023-02-17T09:12:08.989Z,100043.02
2023-02-17T09:14:38.579Z,100037.84
2023-02-17T09:17:07.984Z,100031.27
2023-02-17T09:19:39.961Z,100029.76
2023-02-17T09:22:08.883Z,100028.00
2023-02-17T09:24:39.482Z,100025.81
2023-02-17T09:27:08.589Z,100021.55
2023-02-17T09:29:38.773Z,100017.80
2023-02-17T09:32:11.000Z,100019.39
2023-02-17T09:34:42.346Z,100016.72
2023-02-17T09:37:13.086Z,100019.02
2023-02-17T09:39:42.440Z,100016.86
2023-02-17T09:42:23.755Z,100014.64
2023-02-17T09:45:11.872Z,100010.59
2023-02-17T09:47:47.654Z,100002.00
2023-02-17T09:50:23.174Z,99994.83
2023-02-17T09:53:28.185Z,99988.09
2023-02-17T09:56:02.520Z,99987.05
2023-02-17T09:58:58.920Z,99986.86
2023-02-17T10:01:34.544Z,99984.31
2023-02-17T10:04:11.944Z,99983.41
2023-02-17T10:06:46.916Z,99976.38
2023-02-17T10:09:24.482Z,99971.63
2023-02-17T10:12:02.420Z,99963.66
2023-02-17T10:14:53.973Z,99957.15
2023-02-17T10:17:28.382Z,99950.23
2023-02-17T10:20:12.829Z,99946.87
2023-02-17T10:22:52.079Z,99945.20
2023-02-17T10:25:40.297Z,99941.24
2023-02-17T10:28:19.126Z,99939.76
2023-02-17T10:30:56.109Z,99929.92
2023-02-17T10:33:37.035Z,99929.86
2023-02-17T10:36:29.362Z,99923.83
2023-02-17T10:39:09.421Z,99918.71
2023-02-17T10:41:41.616Z,99911.48
2023-02-17T10:44:18.260Z,99905.16
2023-02-17T10:46:49.278Z,99897.11
2023-02-17T10:49:39.393Z,99887.47
2023-02-17T10:52:17.528Z,99884.86
2023-02-17T10:55:00.464Z,99884.36
2023-02-17T10:57:35.923Z,99878.00
2023-02-17T11:00:09.901Z,99873.59
2023-02-17T11:02:47.212Z,99866.33
2023-02-17T11:05:34.113Z,99861.15
2023-02-17T11:08:07.833Z,99852.08
2023-02-17T11:10:38.490Z,99849.54
2023-02-17T11:13:37.925Z,99838.97
2023-02-17T11:16:07.146Z,99832.64
2023-02-17T11:18:43.094Z,99818.23
2023-02-17T11:21:11.768Z,99812.80
2023-02-17T11:23:59.976Z,99804.27
2023-02-17T11:26:33.104Z,99794.19
2023-02-17T11:29:21.385Z,99789.52
2023-02-17T11:32:08.500Z,99778.33
2023-02-17T11:34:40.574Z,99761.81
2023-02-17T11:37:11.966Z,99749.20
2023-02-17T11:39:43.746Z,99745.74
2023-02-17T11:42:17.701Z,99740.45
2023-02-17T11:44:47.165Z,99741.40
2023-02-17T11:47:31.297Z,99735.81
2023-02-17T11:50:05.471Z,99732.38
2023-02-17T11:52:58.932Z,99724.52
2023-02-17T11:55:42.852Z,99715.76
2023-02-17T11:58:20.380Z,99710.48
2023-02-17T12:00:58.487Z,99701.87
2023-02-17T12:03:34.652Z,99696.91
2023-02-17T12:06:32.153Z,99699.80
2023-02-17T12:09:08.077Z,99688.64
2023-02-17T12:11:54.997Z,99682.23
2023-02-17T12:14:32.937Z,99678.40
2023-02-17T12:17:15.238Z,99670.66
2023-02-17T12:20:22.082Z,99665.89
2023-02-17T12:23:08.487Z,99662.76
2023-02-17T12:25:48.152Z,99658.02
2023-02-17T12:28:22.699Z,99653.80
2023-02-17T12:31:11.180Z,99642.11
2023-02-17T12:34:03.988Z,99636.95
2023-02-17T12:36:36.930Z,99630.89
2023-02-17T12:39:55.019Z,99627.73
2023-02-17T12:42:39.093Z,99621.36
2023-02-17T12:45:16.334Z,99612.86
2023-02-17T12:47:44.593Z,99599.88
2023-02-17T12:50:39.283Z,99594.47
2023-02-17T12:53:17.694Z,99581.84
2023-02-17T12:55:58.468Z,99582.48
2023-02-17T12:58:29.560Z,99577.97
2023-02-17T13:01:11.268Z,99573.64
2023-02-17T13:03:40.631Z,99570.54
2023-02-17T13:06:37.314Z,99564.66
2023-02-17T13:09:15.935Z,99559.13
2023-02-17T13:11:51.381Z,99552.66
2023-02-17T13:14:30.614Z,99543.27
2023-02-17T13:16:59.840Z,99535.83
2023-02-17T13:19:35.361Z,99530.76
2023-02-17T13:22:06.081Z,99530.23
2023-02-17T13:24:40.416Z,99526.36
2023-02-17T13:27:37.740Z,99520.36
2023-02-17T13:30:07.096Z,99515.50
2023-02-17T13:32:38.797Z,99515.66
2023-02-17T13:35:31.217Z,99510.63
2023-02-17T13:38:00.663Z,99507.95
2023-02-17T13:40:34.971Z,99501.61
2023-02-17T13:43:19.348Z,99498.32
2023-02-17T13:46:01.973Z,99491.54
2023-02-17T13:48:37.842Z,99488.58
2023-02-17T13:51:28.119Z,99486.44
2023-02-17T13:54:09.897Z,99481.69
2023-02-17T13:56:42.685Z,99477.86
2023-02-17T13:59:27.887Z,99470.64
2023-02-17T14:02:00.410Z,99465.63
2023-02-17T14:04:33.369Z,99457.77
2023-02-17T14:07:06.481Z,99451.40
2023-02-17T14:09:35.887Z,99442.92
2023-02-17T14:12:07.794Z,99439.00
2023-02-17T14:14:38.360Z,99439.54
2023-02-17T14:17:13.937Z,99426.00
2023-02-17T14:19:46.066Z,99420.62
2023-02-17T14:22:29.917Z,99412.25
2023-02-17T14:25:14.266Z,99399.34
2023-02-17T14:27:46.355Z,99391.29
2023-02-17T14:30:28.646Z,99380.09
2023-02-17T14:33:18.591Z,99373.38
2023-02-17T14:36:07.316Z,99366.16
2023-02-17T14:38:43.156Z,99350.74
2023-02-17T14:41:12.318Z,99343.64
2023-02-17T14:43:41.158Z,99336.12
2023-02-17T14:46:10.131Z,99326.13
2023-02-17T14:48:38.745Z,99319.89
2023-02-17T14:51:17.901Z,99306.80
2023-02-17T14:53:47.031Z,99300.52
2023-02-17T14:56:37.804Z,99292.94
2023-02-17T14:59:06.253Z,99284.14
2023-02-17T15:01:34.878Z,99282.95
2023-02-17T15:04:03.148Z,99275.40
2023-02-17T15:06:41.243Z,99271.26
2023-02-17T15:09:13.390Z,99262.63
2023-02-17T15:11:45.761Z,99254.27
2023-02-17T15:14:17.681Z,99249.93
2023-02-17T15:16:47.726Z,99246.73
2023-02-17T15:19:20.356Z,99240.55
2023-02-17T15:21:52.655Z,99231.83
2023-02-17T15:24:27.066Z,99222.39
2023-02-17T15:26:57.643Z,99220.28
2023-02-17T15:29:30.591Z,99219.09
2023-02-17T15:32:11.219Z,99215.28
2023-02-17T15:34:40.379Z,99217.93
2023-02-17T15:37:10.454Z,99213.52
2023-02-17T15:39:39.524Z,99207.39
2023-02-17T15:42:13.941Z,99200.82
2023-02-17T15:44:50.003Z,99195.74
2023-02-17T15:47:20.705Z,99190.16
2023-02-17T15:49:50.107Z,99189.83
2023-02-17T15:52:19.058Z,99184.71
2023-02-17T15:54:48.587Z,99174.83
2023-02-17T15:57:25.408Z,99170.29
2023-02-17T15:59:57.886Z,99166.36
2023-02-17T16:02:26.413Z,99164.46
2023-02-17T16:04:55.681Z,99156.66
2023-02-17T16:07:26.939Z,99150.03
2023-02-17T16:09:56.232Z,99148.91
2023-02-17T16:12:27.948Z,99144.58
2023-02-17T16:14:58.838Z,99141.83
2023-02-17T16:17:27.846Z,99134.24
2023-02-17T16:19:56.775Z,99132.60
2023-02-17T16:22:25.592Z,99127.29
2023-02-17T16:24:54.849Z,99115.23
2023-02-17T16:27:25.338Z,99107.93
2023-02-17T16:29:53.902Z,99105.49
2023-02-17T16:32:22.518Z,99103.57
2023-02-17T16:34:51.500Z,99091.59
2023-02-17T16:37:19.854Z,99096.30
2023-02-17T16:39:48.840Z,99096.06
2023-02-17T16:42:17.620Z,99092.17
2023-02-17T16:44:47.198Z,99078.81
2023-02-17T16:47:21.304Z,99074.34
2023-02-17T16:49:50.698Z,99069.04
2023-02-17T16:52:27.511Z,99059.60
2023-02-17T16:54:56.576Z,99060.73
2023-02-17T16:57:26.584Z,99056.56
2023-02-17T16:59:56.112Z,99050.14
2023-02-17T17:02:25.215Z,99038.14
2023-02-17T17:04:53.790Z,99033.34
2023-02-17T17:07:22.619Z,99027.97
2023-02-17T17:10:14.756Z,99026.72
2023-02-17T17:12:40.731Z,99022.09
2023-02-17T17:15:10.161Z,99015.35
2023-02-17T17:17:44.993Z,99015.64
2023-02-17T17:20:20.227Z,99006.63
2023-02-17T17:22:49.509Z,98999.46
2023-02-17T17:25:18.143Z,99002.05
2023-02-17T17:27:46.679Z,98996.43
2023-02-17T17:30:22.197Z,98996.30
2023-02-17T17:32:52.068Z,98995.15
2023-02-17T17:35:22.351Z,98995.14
2023-02-17T17:37:51.332Z,98988.05
2023-02-17T17:40:49.100Z,98986.55
2023-02-17T17:43:21.575Z,98983.59
2023-02-17T17:45:52.277Z,98974.92
2023-02-17T17:48:21.370Z,98974.83
2023-02-17T17:50:50.697Z,98974.07
2023-02-17T17:53:19.884Z,98968.65
2023-02-17T17:55:49.305Z,98971.23
2023-02-17T17:58:17.857Z,98970.69
2023-02-17T18:00:47.030Z,98969.66
2023-02-17T18:03:16.257Z,98965.10
2023-02-17T18:05:45.656Z,98964.94
2023-02-17T18:08:14.417Z,98966.23
2023-02-17T18:10:43.758Z,98960.55
2023-02-17T18:13:14.284Z,98957.00
2023-02-17T18:15:44.343Z,98955.09
2023-02-17T18:18:13.804Z,98955.65
2023-02-17T18:20:42.936Z,98957.03
2023-02-17T18:23:11.783Z,98955.14
2023-02-17T18:25:40.514Z,98956.45
2023-02-17T18:28:09.433Z,98951.54
2023-02-17T18:30:38.435Z,98944.52
2023-02-17T18:33:07.314Z,98940.82
2023-02-17T18:35:38.924Z,98932.74
2023-02-17T18:38:08.662Z,98935.91
2023-02-17T18:40:42.499Z,98933.48
2023-02-17T18:43:11.682Z,98928.36
2023-02-17T18:45:40.682Z,98923.95
2023-02-17T18:48:09.636Z,98922.42
2023-02-17T18:50:37.999Z,98917.55
2023-02-17T18:53:07.016Z,98908.09
2023-02-17T18:55:39.473Z,98903.78
2023-02-17T18:58:08.055Z,98897.21
2023-02-17T19:00:37.113Z,98892.84
2023-02-17T19:03:05.582Z,98891.00
2023-02-17T19:05:34.815Z,98887.70
2023-02-17T19:08:04.035Z,98883.70
2023-02-17T19:10:34.381Z,98874.89
2023-02-17T19:13:03.990Z,98877.70
2023-02-17T19:15:34.155Z,98873.54
2023-02-17T19:18:03.784Z,98869.06
2023-02-17T19:20:33.058Z,98863.77
2023-02-17T19:23:02.962Z,98859.59
2023-02-17T19:25:32.252Z,98858.89
2023-02-17T19:28:01.264Z,98854.45
2023-02-17T19:30:30.250Z,98855.13
2023-02-17T19:32:58.858Z,98851.84
2023-02-17T19:35:27.560Z,98848.27
2023-02-17T19:37:56.009Z,98840.20
2023-02-17T19:40:24.375Z,98843.41
2023-02-17T19:42:52.658Z,98835.98
2023-02-17T19:45:21.282Z,98835.84
2023-02-17T19:47:50.942Z,98828.06
2023-02-17T19:50:20.863Z,98825.66
2023-02-17T19:52:49.424Z,98818.67
2023-02-17T19:55:19.065Z,98811.88
2023-02-17T19:57:54.021Z,98820.59
2023-02-17T20:00:28.448Z,98821.81
2023-02-17T20:03:07.975Z,98826.16
2023-02-17T20:05:50.881Z,98835.02
2023-02-17T20:08:31.151Z,98859.83
2023-02-17T20:11:10.994Z,98869.02
2023-02-17T20:13:48.311Z,98873.48
2023-02-17T20:16:24.746Z,98875.52
2023-02-17T20:19:04.081Z,98885.73
2023-02-17T20:21:41.982Z,98887.27
2023-02-17T20:24:19.858Z,98888.52
2023-02-17T20:26:58.735Z,98892.98
2023-02-17T20:29:32.254Z,98894.34
2023-02-17T20:32:07.667Z,98894.79
2023-02-17T20:34:45.995Z,98884.52
2023-02-17T20:37:22.170Z,98883.19
2023-02-17T20:39:58.056Z,98896.13
2023-02-17T20:42:31.365Z,98893.90
2023-02-17T20:45:00.350Z,98892.06
2023-02-17T20:47:29.781Z,98896.56
2023-02-17T20:49:59.242Z,98892.39
2023-02-17T20:52:28.645Z,98887.61
2023-02-17T20:54:57.544Z,98898.23
2023-02-17T20:57:27.582Z,98900.92
2023-02-17T20:59:56.067Z,98899.15
2023-02-17T21:02:25.255Z,98906.24
2023-02-17T21:04:55.993Z,98901.80
2023-02-17T21:07:26.843Z,98901.85
2023-02-17T21:09:57.298Z,98898.48
2023-02-17T21:12:31.253Z,98908.84
2023-02-17T21:15:01.375Z,98904.09
2023-02-17T21:17:31.005Z,98907.94
2023-02-17T21:20:01.715Z,98907.52
2023-02-17T21:22:32.577Z,98909.88
2023-02-17T21:25:01.354Z,98907.61
2023-02-17T21:27:30.855Z,98909.26
2023-02-17T21:30:00.128Z,98907.92
2023-02-17T21:32:28.939Z,98913.60
2023-02-17T21:34:57.877Z,98909.74
2023-02-17T21:37:26.757Z,98911.05
2023-02-17T21:39:55.503Z,98902.00
2023-02-17T21:42:45.710Z,98908.09
2023-02-17T21:45:15.327Z,98902.94
2023-02-17T21:47:44.300Z,98911.23
2023-02-17T21:50:13.896Z,98918.35
2023-02-17T21:52:43.048Z,98912.70
2023-02-17T21:55:12.804Z,98910.87
2023-02-17T21:57:43.925Z,98911.33
2023-02-17T22:00:16.760Z,98918.18
2023-02-17T22:02:46.561Z,98914.96
2023-02-17T22:05:15.511Z,98925.29
2023-02-17T22:07:44.107Z,98932.95
2023-02-17T22:10:12.870Z,98932.31
2023-02-17T22:12:41.065Z,98925.66
2023-02-17T22:15:11.420Z,98934.39
2023-02-17T22:17:40.470Z,98937.65
2023-02-17T22:20:10.405Z,98936.19
2023-02-17T22:22:39.187Z,98934.98
2023-02-17T22:25:08.561Z,98924.08
2023-02-17T22:27:37.070Z,98927.05
2023-02-17T22:30:09.777Z,98924.36
2023-02-17T22:32:40.880Z,98940.48
2023-02-17T22:35:10.777Z,98935.63
2023-02-17T22:37:40.454Z,98937.47
2023-02-17T22:40:13.009Z,98935.89
2023-02-17T22:42:41.914Z,98929.67
2023-02-17T22:45:10.785Z,98923.17
2023-02-17T22:47:39.287Z,98925.71
2023-02-17T22:50:08.270Z,98921.48
2023-02-17T22:52:37.127Z,98926.92
2023-02-17T22:55:06.615Z,98925.08
2023-02-17T22:57:36.194Z,98936.58
2023-02-17T23:00:05.768Z,98937.40
2023-02-17T23:02:35.824Z,98930.92
2023-02-17T23:05:09.261Z,98927.52
2023-02-17T23:07:38.097Z,98928.55
2023-02-17T23:10:08.191Z,98920.56
2023-02-17T23:12:37.390Z,98919.27
2023-02-17T23:15:07.019Z,98923.79
2023-02-17T23:17:55.881Z,98920.04
2023-02-17T23:20:25.916Z,98920.84
2023-02-17T23:22:54.713Z,98926.42
2023-02-17T23:25:24.511Z,98921.66
2023-02-17T23:27:54.266Z,98928.40
2023-02-17T23:30:23.818Z,98927.70
2023-02-17T23:32:53.207Z,98923.27
2023-02-17T23:35:22.460Z,98926.55
2023-02-17T23:37:53.075Z,98918.23
2023-02-17T23:40:22.297Z,98923.58
2023-02-17T23:42:50.610Z,98924.67
2023-02-17T23:45:19.745Z,98925.02
2023-02-17T23:47:48.427Z,98918.79
2023-02-17T23:50:17.728Z,98918.09
2023-02-17T23:52:47.299Z,98918.60
2023-02-17T23:55:16.720Z,98916.23
2023-02-17T23:57:46.386Z,98919.94
